Time;durP1;ratioP1;P1;durP2;ratioP2;P2;SDS_P1;SDS_P2;PMS_P1;PMS_P2;Temp;Humidity;BMP_temperature;BMP_pressure;BME280_temperature;BME280_humidity;BME280_pressure;Samples;Min_cycle;Max_cycle;Signal;HPM_P1;HPM_P2
2021/06/10 00:00:53;;;;;;;6.83;6.10;;;19.60;1.00;;;;;;5047997;28;20464;-75
2021/06/10 00:03:19;;;;;;;7.17;6.47;;;19.60;1.00;;;;;;5042979;28;20429;-76
2021/06/10 00:05:45;;;;;;;7.90;7.10;;;19.50;1.00;;;;;;5027898;28;20447;-77
2021/06/10 00:08:13;;;;;;;7.47;6.40;;;19.50;1.00;;;;;;5040839;28;20883;-77
2021/06/10 00:10:43;;;;;;;9.43;6.90;;;19.50;1.00;;;;;;5040609;28;20474;-76
2021/06/10 00:13:11;;;;;;;7.40;6.73;;;19.40;1.00;;;;;;5044696;28;20432;-76
2021/06/10 00:15:37;;;;;;;6.90;6.20;;;19.40;1.00;;;;;;5046093;28;20443;-76
2021/06/10 00:18:07;;;;;;;7.40;6.70;;;19.40;1.00;;;;;;5044741;28;20456;-77
2021/06/10 00:20:35;;;;;;;7.20;6.50;;;19.30;1.00;;;;;;5042304;28;21106;-77
2021/06/10 00:23:02;;;;;;;6.50;6.00;;;19.30;1.00;;;;;;5048257;28;20436;-77
2021/06/10 00:25:29;;;;;;;7.20;6.60;;;19.30;1.00;;;;;;5048291;28;20503;-75
2021/06/10 00:27:59;;;;;;;7.20;6.50;;;19.30;1.00;;;;;;5046387;28;21033;-75
2021/06/10 00:30:25;;;;;;;6.83;6.23;;;19.30;1.00;;;;;;5044747;28;20483;-76
2021/06/10 00:32:52;;;;;;;6.83;6.33;;;19.30;1.00;;;;;;5042280;28;20451;-76
2021/06/10 00:35:20;;;;;;;6.37;5.87;;;19.20;1.00;;;;;;5042059;28;20850;-77
2021/06/10 00:37:47;;;;;;;6.30;5.80;;;19.20;1.00;;;;;;5040572;28;20554;-79
2021/06/10 00:40:14;;;;;;;7.03;6.47;;;19.10;1.00;;;;;;5041774;28;20457;-75
2021/06/10 00:42:42;;;;;;;7.53;6.77;;;19.10;1.00;;;;;;5039504;28;20463;-77
2021/06/10 00:45:14;;;;;;;6.87;6.27;;;19.00;1.00;;;;;;5043920;28;21256;-78
2021/06/10 00:47:41;;;;;;;7.07;6.47;;;19.00;1.00;;;;;;5044040;28;20494;-75
2021/06/10 00:50:08;;;;;;;8.50;6.20;;;19.00;1.00;;;;;;5042321;28;20464;-78
2021/06/10 00:52:34;;;;;;;7.87;7.07;;;19.00;1.00;;;;;;5045046;28;20505;-74
2021/06/10 00:55:01;;;;;;;7.80;6.90;;;19.00;1.00;;;;;;5063388;28;20496;-75
2021/06/10 00:57:27;;;;;;;7.37;6.57;;;18.90;1.00;;;;;;5065233;28;20432;-74
2021/06/10 00:59:54;;;;;;;7.47;6.87;;;18.90;1.00;;;;;;5065199;28;20448;-75
2021/06/10 01:02:27;;;;;;;7.73;6.20;;;19.00;1.00;;;;;;5069276;28;20505;-74
2021/06/10 01:04:53;;;;;;;7.63;6.83;;;19.00;1.00;;;;;;5067910;28;20446;-74
2021/06/10 01:07:25;;;;;;;7.20;6.60;;;19.00;1.00;;;;;;5066179;28;20415;-74
2021/06/10 01:10:00;;;;;;;7.90;6.60;;;18.90;1.00;;;;;;5064951;28;20447;-74
2021/06/10 01:12:33;;;;;;;7.33;6.63;;;19.00;1.00;;;;;;5066540;28;20400;-74
2021/06/10 01:15:03;;;;;;;7.17;6.47;;;18.90;1.00;;;;;;5066608;28;20412;-75
2021/06/10 01:17:32;;;;;;;6.73;6.23;;;18.90;1.00;;;;;;5066925;28;20458;-75
2021/06/10 01:20:06;;;;;;;6.60;6.10;;;18.90;1.00;;;;;;5064757;28;21006;-75
2021/06/10 01:22:39;;;;;;;6.83;6.23;;;18.80;1.00;;;;;;5063415;28;20492;-74
2021/06/10 01:25:15;;;;;;;6.70;6.13;;;18.70;1.00;;;;;;5064886;28;20444;-74
2021/06/10 01:27:46;;;;;;;7.80;7.20;;;18.70;1.00;;;;;;5063479;28;20504;-74
2021/06/10 01:30:16;;;;;;;8.00;6.73;;;18.70;1.00;;;;;;5063210;28;20434;-75
2021/06/10 01:32:46;;;;;;;6.10;5.67;;;18.60;1.00;;;;;;5043986;28;20413;-76
2021/06/10 01:35:14;;;;;;;6.80;6.30;;;18.60;1.00;;;;;;5040612;28;20463;-75
2021/06/10 01:37:41;;;;;;;8.40;7.13;;;18.60;1.00;;;;;;5040405;28;20464;-73
2021/06/10 01:40:10;;;;;;;7.20;6.60;;;18.60;1.00;;;;;;5044525;28;20462;-79
2021/06/10 01:42:38;;;;;;;7.27;6.67;;;18.60;1.00;;;;;;5042016;28;20521;-79
2021/06/10 01:45:07;;;;;;;7.80;7.20;;;18.60;1.00;;;;;;5021705;28;20468;-79
2021/06/10 01:47:34;;;;;;;7.27;6.57;;;18.50;1.00;;;;;;5045615;28;20535;-78
2021/06/10 01:50:02;;;;;;;6.80;6.20;;;18.50;1.00;;;;;;5051700;28;20530;-77
2021/06/10 01:52:29;;;;;;;7.93;7.13;;;18.50;1.00;;;;;;5050693;28;21618;-76
2021/06/10 01:54:56;;;;;;;7.10;6.50;;;18.50;1.00;;;;;;5047301;28;21726;-77
2021/06/10 01:57:23;;;;;;;8.70;7.63;;;18.50;1.00;;;;;;5048788;28;20467;-74
2021/06/10 01:59:50;;;;;;;7.10;6.50;;;18.40;1.00;;;;;;5045501;28;20463;-77
2021/06/10 02:02:19;;;;;;;7.93;7.20;;;18.50;1.00;;;;;;5049440;28;20490;-76
2021/06/10 02:04:46;;;;;;;7.83;7.20;;;18.40;1.00;;;;;;5051509;28;20463;-75
2021/06/10 02:07:12;;;;;;;8.20;7.50;;;18.50;1.00;;;;;;5052929;28;20506;-77
2021/06/10 02:09:42;;;;;;;8.10;7.40;;;18.50;1.00;;;;;;5053418;28;20467;-75
2021/06/10 02:12:09;;;;;;;8.10;7.30;;;18.50;1.00;;;;;;5053488;28;20487;-77
2021/06/10 02:14:36;;;;;;;8.43;7.63;;;18.60;1.00;;;;;;5049673;28;20524;-76
2021/06/10 02:17:02;;;;;;;8.80;7.57;;;18.60;1.00;;;;;;5050901;28;20451;-77
2021/06/10 02:19:30;;;;;;;7.87;7.10;;;18.60;1.00;;;;;;5051129;28;20485;-76
2021/06/10 02:21:56;;;;;;;7.70;7.10;;;18.60;1.00;;;;;;5056733;28;20430;-75
2021/06/10 02:24:23;;;;;;;8.00;7.40;;;18.50;1.00;;;;;;5052563;28;20463;-76
2021/06/10 02:26:49;;;;;;;7.80;7.10;;;18.50;1.00;;;;;;5015677;28;20427;-78
2021/06/10 02:29:16;;;;;;;7.80;7.10;;;18.50;1.00;;;;;;5057833;28;20463;-75
2021/06/10 02:31:42;;;;;;;9.03;8.10;;;18.40;1.00;;;;;;5055728;28;20444;-75
2021/06/10 02:34:08;;;;;;;8.20;7.50;;;18.50;1.00;;;;;;5053824;28;20489;-76
2021/06/10 02:36:40;;;;;;;8.80;8.03;;;18.40;1.00;;;;;;5057303;28;20681;-76
2021/06/10 02:39:08;;;;;;;7.67;6.97;;;18.40;1.00;;;;;;5058400;28;20450;-76
2021/06/10 02:41:38;;;;;;;8.70;7.90;;;18.30;1.00;;;;;;5053795;28;20420;-75
2021/06/10 02:44:06;;;;;;;9.40;8.50;;;18.30;1.00;;;;;;5035683;28;20530;-76
2021/06/10 02:46:34;;;;;;;7.90;7.30;;;18.40;1.00;;;;;;5033454;28;20452;-77
2021/06/10 02:49:01;;;;;;;10.10;9.10;;;18.40;1.00;;;;;;5053378;28;20538;-77
2021/06/10 02:51:30;;;;;;;9.03;8.33;;;18.40;1.00;;;;;;5052033;28;20463;-75
2021/06/10 02:53:58;;;;;;;13.30;10.40;;;18.50;1.00;;;;;;5054032;28;20476;-75
2021/06/10 02:56:26;;;;;;;10.10;8.97;;;18.50;1.00;;;;;;5056263;28;20456;-76
2021/06/10 02:58:55;;;;;;;9.17;8.43;;;18.50;1.00;;;;;;5058393;28;20431;-75
2021/06/10 03:01:22;;;;;;;9.30;8.57;;;18.50;1.00;;;;;;5056995;28;20493;-77
2021/06/10 03:03:51;;;;;;;9.13;8.23;;;18.60;1.00;;;;;;5056016;28;20467;-74
2021/06/10 03:06:18;;;;;;;9.27;8.50;;;18.60;1.00;;;;;;5049713;28;20431;-77
2021/06/10 03:08:50;;;;;;;10.27;9.27;;;18.70;1.00;;;;;;5054200;28;20485;-76
2021/06/10 03:11:18;;;;;;;9.10;8.20;;;18.70;1.00;;;;;;5054804;28;20926;-75
2021/06/10 03:13:46;;;;;;;9.10;8.30;;;18.80;1.00;;;;;;5052072;28;20543;-76
2021/06/10 03:16:12;;;;;;;9.40;8.60;;;18.80;1.00;;;;;;5052749;28;20440;-76
2021/06/10 03:18:40;;;;;;;8.57;7.77;;;18.80;1.00;;;;;;5058413;28;20455;-74
2021/06/10 03:21:06;;;;;;;11.07;10.17;;;18.90;1.00;;;;;;5055665;28;20462;-76
2021/06/10 03:23:33;;;;;;;14.23;9.93;;;18.90;1.00;;;;;;5058956;28;20608;-78
2021/06/10 03:26:00;;;;;;;9.13;8.43;;;19.00;1.00;;;;;;5052130;28;20468;-77
2021/06/10 03:28:29;;;;;;;9.77;8.80;;;19.00;1.00;;;;;;5051479;28;20442;-78
2021/06/10 03:30:56;;;;;;;11.17;9.50;;;19.10;1.00;;;;;;5055189;28;20483;-75
2021/06/10 03:33:23;;;;;;;17.37;16.07;;;19.20;1.00;;;;;;5053182;28;20420;-75
2021/06/10 03:35:51;;;;;;;9.73;8.73;;;19.20;1.00;;;;;;5048562;28;20665;-77
2021/06/10 03:38:18;;;;;;;10.47;9.43;;;19.30;1.00;;;;;;5053021;28;20545;-77
2021/06/10 03:40:47;;;;;;;8.83;8.03;;;19.40;1.00;;;;;;5055317;28;20435;-75
2021/06/10 03:43:15;;;;;;;11.60;8.83;;;19.40;1.00;;;;;;5053356;28;20459;-75
2021/06/10 03:45:42;;;;;;;9.37;8.53;;;19.50;1.00;;;;;;5052683;28;20461;-75
2021/06/10 03:48:10;;;;;;;9.43;8.30;;;19.60;1.00;;;;;;5056385;28;20499;-77
2021/06/10 03:50:39;;;;;;;9.50;8.60;;;19.60;1.00;;;;;;5045214;28;20429;-78
2021/06/10 03:53:06;;;;;;;10.17;9.20;;;19.60;1.00;;;;;;5051737;28;21582;-78
2021/06/10 03:55:33;;;;;;;10.10;8.97;;;19.60;1.00;;;;;;5049636;28;20564;-78
2021/06/10 03:58:00;;;;;;;11.20;10.10;;;19.60;1.00;;;;;;5051507;28;20439;-78
2021/06/10 04:00:26;;;;;;;11.80;9.27;;;19.50;1.00;;;;;;5051209;28;20416;-76
2021/06/10 04:02:56;;;;;;;12.73;9.70;;;19.50;1.00;;;;;;5049779;28;20453;-76
2021/06/10 04:05:23;;;;;;;13.17;9.07;;;19.50;1.00;;;;;;5048619;28;20495;-76
2021/06/10 04:07:50;;;;;;;9.77;8.90;;;19.50;1.00;;;;;;5049571;28;20478;-77
2021/06/10 04:10:16;;;;;;;11.70;10.53;;;19.40;1.00;;;;;;5052201;28;20462;-77
2021/06/10 04:12:42;;;;;;;9.93;8.93;;;19.40;1.00;;;;;;5032817;28;20431;-75
2021/06/10 04:15:09;;;;;;;11.27;8.23;;;19.40;1.00;;;;;;5048493;28;21036;-76
2021/06/10 04:17:35;;;;;;;11.23;9.80;;;19.30;1.00;;;;;;5045820;28;20471;-76
2021/06/10 04:20:04;;;;;;;9.70;8.87;;;19.30;1.00;;;;;;5052378;28;20448;-77
2021/06/10 04:22:31;;;;;;;9.37;8.57;;;19.30;1.00;;;;;;5059436;28;20508;-75
2021/06/10 04:24:57;;;;;;;9.87;8.93;;;19.30;1.00;;;;;;5055806;28;20503;-76
2021/06/10 04:27:23;;;;;;;9.57;8.77;;;19.30;1.00;;;;;;5053252;28;20455;-77
2021/06/10 04:29:49;;;;;;;12.63;9.97;;;19.30;1.00;;;;;;5033140;28;20498;-76
2021/06/10 04:32:15;;;;;;;9.70;8.90;;;19.30;1.00;;;;;;5048981;28;20919;-78
2021/06/10 04:34:41;;;;;;;9.10;8.17;;;19.30;1.00;;;;;;5049049;28;20427;-78
2021/06/10 04:37:09;;;;;;;12.27;9.10;;;19.40;1.00;;;;;;5046248;28;20631;-78
2021/06/10 04:39:35;;;;;;;9.67;8.73;;;19.40;1.00;;;;;;5044910;28;20475;-75
2021/06/10 04:42:02;;;;;;;12.07;9.00;;;19.50;1.00;;;;;;5046544;28;20881;-77
2021/06/10 04:44:28;;;;;;;12.10;9.00;;;19.50;1.00;;;;;;5045821;28;20469;-77
2021/06/10 04:46:54;;;;;;;11.47;8.20;;;19.50;1.00;;;;;;5043740;28;20460;-77
2021/06/10 04:49:20;;;;;;;8.80;7.90;;;19.60;1.00;;;;;;5041967;28;20527;-78
2021/06/10 04:51:46;;;;;;;10.07;9.17;;;19.60;1.00;;;;;;5042623;28;20483;-78
2021/06/10 04:54:14;;;;;;;11.20;7.37;;;19.50;1.00;;;;;;5041439;28;20454;-78
2021/06/10 04:56:40;;;;;;;10.07;9.03;;;19.50;1.00;;;;;;5049109;28;21167;-77
2021/06/10 04:59:06;;;;;;;8.43;7.67;;;19.50;1.00;;;;;;5024289;28;20451;-76
2021/06/10 05:01:32;;;;;;;10.30;8.60;;;19.50;1.00;;;;;;5042189;28;20491;-77
2021/06/10 05:03:59;;;;;;;14.07;8.50;;;19.50;1.00;;;;;;5041941;28;20505;-81
2021/06/10 05:06:26;;;;;;;9.90;8.97;;;19.50;1.00;;;;;;5044182;28;20475;-78
2021/06/10 05:08:53;;;;;;;24.43;19.73;;;19.50;1.00;;;;;;5046443;28;20495;-78
2021/06/10 05:11:20;;;;;;;10.37;8.77;;;19.60;1.00;;;;;;5030733;28;20448;-79
2021/06/10 05:13:46;;;;;;;10.87;9.77;;;19.70;1.00;;;;;;5047914;28;20697;-78
2021/06/10 05:16:13;;;;;;;9.83;8.73;;;19.70;1.00;;;;;;5050821;28;20658;-77
2021/06/10 05:18:39;;;;;;;10.07;9.20;;;19.90;1.00;;;;;;5028999;28;20524;-77
2021/06/10 05:21:05;;;;;;;10.17;9.27;;;19.90;1.00;;;;;;5044752;28;20436;-78
2021/06/10 05:23:31;;;;;;;9.00;8.10;;;20.00;1.00;;;;;;5048730;28;20542;-78
2021/06/10 05:25:57;;;;;;;13.23;9.57;;;20.00;1.00;;;;;;5048179;28;20474;-77
2021/06/10 05:28:29;;;;;;;10.77;8.73;;;20.10;1.00;;;;;;5048897;28;20445;-79
2021/06/10 05:30:55;;;;;;;9.43;8.60;;;20.20;1.00;;;;;;5050992;28;21101;-79
2021/06/10 05:33:21;;;;;;;8.77;7.57;;;20.30;1.00;;;;;;5054118;28;20485;-79
2021/06/10 05:35:51;;;;;;;8.57;7.37;;;20.50;1.00;;;;;;5054862;28;20432;-79
2021/06/10 05:38:17;;;;;;;11.33;9.47;;;20.60;1.00;;;;;;5052889;28;20543;-79
2021/06/10 05:40:43;;;;;;;9.87;8.70;;;20.80;1.00;;;;;;5048188;28;20592;-81
2021/06/10 05:43:09;;;;;;;9.40;8.23;;;21.00;1.00;;;;;;5025958;28;20559;-79
2021/06/10 05:45:37;;;;;;;9.10;7.70;;;21.20;1.00;;;;;;5047112;28;20504;-77
2021/06/10 05:48:04;;;;;;;7.30;6.60;;;21.50;1.00;;;;;;5046301;28;20479;-78
2021/06/10 05:50:30;;;;;;;14.30;8.43;;;21.60;1.00;;;;;;5042548;28;20584;-79
2021/06/10 05:52:56;;;;;;;10.17;9.10;;;21.70;1.00;;;;;;5023017;28;20451;-75
2021/06/10 05:55:22;;;;;;;8.17;7.50;;;21.70;1.00;;;;;;5041156;28;20476;-77
2021/06/10 05:57:49;;;;;;;8.73;8.03;;;21.80;1.00;;;;;;5042654;28;20567;-75
2021/06/10 06:00:16;;;;;;;10.77;9.20;;;21.80;1.00;;;;;;5042779;28;20517;-75
2021/06/10 06:02:44;;;;;;;9.30;7.50;;;21.90;1.00;;;;;;5046394;28;20586;-76
2021/06/10 06:05:11;;;;;;;12.33;7.97;;;22.10;1.00;;;;;;5040395;28;20465;-76
2021/06/10 06:07:38;;;;;;;10.37;8.40;;;22.20;1.00;;;;;;5025731;28;20477;-76
2021/06/10 06:10:05;;;;;;;8.70;7.90;;;22.30;1.00;;;;;;5042727;28;20452;-76
2021/06/10 06:12:32;;;;;;;8.37;7.53;;;22.40;1.00;;;;;;5040956;28;20504;-76
2021/06/10 06:14:58;;;;;;;8.53;7.83;;;22.40;1.00;;;;;;5042077;28;20432;-76
2021/06/10 06:17:24;;;;;;;23.13;9.83;;;22.50;1.00;;;;;;5043143;28;20481;-76
2021/06/10 06:19:52;;;;;;;8.23;7.43;;;22.40;1.00;;;;;;5041183;28;20469;-76
2021/06/10 06:22:18;;;;;;;8.40;7.70;;;22.50;1.00;;;;;;5038931;28;20993;-75
2021/06/10 06:24:44;;;;;;;8.67;7.87;;;22.70;1.00;;;;;;5040232;28;21785;-75
2021/06/10 06:27:12;;;;;;;9.73;7.93;;;22.70;1.00;;;;;;5048615;28;20544;-76
2021/06/10 06:29:40;;;;;;;10.30;7.70;;;22.70;1.00;;;;;;5047299;28;20541;-77
2021/06/10 06:32:07;;;;;;;8.47;7.30;;;22.80;1.00;;;;;;5050529;28;20421;-75
2021/06/10 06:34:33;;;;;;;11.20;9.83;;;22.90;1.00;;;;;;5050295;28;20485;-76
2021/06/10 06:37:01;;;;;;;9.97;8.97;;;23.00;1.00;;;;;;5047110;28;20548;-76
2021/06/10 06:39:27;;;;;;;7.53;6.47;;;23.30;1.00;;;;;;5046142;28;20410;-76
2021/06/10 06:41:53;;;;;;;14.23;8.43;;;23.40;1.00;;;;;;5026824;28;20406;-75
2021/06/10 06:44:19;;;;;;;10.70;7.47;;;23.60;1.00;;;;;;5047392;28;20462;-77
2021/06/10 06:46:45;;;;;;;11.10;7.30;;;23.70;1.00;;;;;;5042310;28;20500;-77
2021/06/10 06:49:12;;;;;;;7.40;6.67;;;24.00;1.00;;;;;;5046318;28;20973;-77
2021/06/10 06:51:38;;;;;;;8.63;7.07;;;24.00;1.00;;;;;;5045022;28;20424;-77
2021/06/10 06:54:05;;;;;;;7.70;6.47;;;24.10;1.00;;;;;;5043416;28;20568;-76
2021/06/10 06:56:32;;;;;;;11.50;7.93;;;24.10;1.00;;;;;;5044146;28;20455;-76
2021/06/10 06:58:59;;;;;;;9.77;6.70;;;24.20;1.00;;;;;;5048985;28;20528;-77
2021/06/10 07:01:25;;;;;;;9.70;6.83;;;24.20;1.00;;;;;;5043354;28;20955;-77
2021/06/10 07:03:51;;;;;;;7.80;6.53;;;24.30;1.00;;;;;;5045325;28;20532;-76
2021/06/10 07:06:18;;;;;;;7.50;6.37;;;24.40;1.00;;;;;;5041941;28;20888;-76
2021/06/10 07:08:47;;;;;;;10.30;7.93;;;24.50;1.00;;;;;;5027978;28;20569;-76
2021/06/10 07:11:15;;;;;;;10.73;6.40;;;24.70;1.00;;;;;;5046409;28;20476;-76
2021/06/10 07:13:41;;;;;;;8.17;7.23;;;24.80;1.00;;;;;;5044843;28;20457;-75
2021/06/10 07:16:08;;;;;;;5.77;5.27;;;24.90;1.00;;;;;;5045388;28;20943;-77
2021/06/10 07:18:34;;;;;;;8.10;6.40;;;25.10;1.00;;;;;;5042373;28;20968;-76
2021/06/10 07:21:01;;;;;;;8.93;5.90;;;25.20;1.00;;;;;;5039164;28;20935;-76
2021/06/10 07:23:27;;;;;;;5.53;4.67;;;25.20;1.00;;;;;;5043242;28;20450;-77
2021/06/10 07:25:54;;;;;;;5.80;5.07;;;25.30;1.00;;;;;;5037834;28;21975;-77
2021/06/10 07:28:22;;;;;;;8.27;7.40;;;25.40;1.00;;;;;;5046999;28;21214;-77
2021/06/10 07:30:49;;;;;;;5.27;4.87;;;25.40;1.00;;;;;;5045902;28;20484;-76
2021/06/10 07:33:16;;;;;;;5.13;4.73;;;25.40;1.00;;;;;;5046892;28;20457;-77
2021/06/10 07:35:42;;;;;;;7.43;6.20;;;25.50;1.00;;;;;;5024438;28;21559;-76
2021/06/10 07:38:09;;;;;;;4.53;4.23;;;25.60;1.00;;;;;;5043991;28;20582;-74
2021/06/10 07:40:36;;;;;;;8.87;5.27;;;25.70;1.00;;;;;;5042673;28;20470;-74
2021/06/10 07:43:02;;;;;;;5.97;5.00;;;25.70;1.00;;;;;;5039427;28;20472;-75
2021/06/10 07:45:32;;;;;;;10.80;6.50;;;25.80;1.00;;;;;;5045463;28;20474;-74
2021/06/10 07:47:59;;;;;;;5.83;5.33;;;25.90;1.00;;;;;;5042952;28;20540;-75
2021/06/10 07:50:26;;;;;;;6.07;5.47;;;26.00;1.00;;;;;;5044243;28;20502;-75
2021/06/10 07:52:52;;;;;;;6.33;5.70;;;26.00;1.00;;;;;;5041341;28;20466;-74
2021/06/10 07:55:20;;;;;;;5.80;5.20;;;26.10;1.00;;;;;;5041712;28;20454;-76
2021/06/10 07:57:46;;;;;;;7.43;6.13;;;26.10;1.00;;;;;;5041609;28;20516;-76
2021/06/10 08:00:13;;;;;;;6.27;5.77;;;26.10;1.00;;;;;;5042743;28;20458;-76
2021/06/10 08:02:40;;;;;;;8.23;7.40;;;26.10;1.00;;;;;;5016049;28;20467;-74
2021/06/10 08:05:07;;;;;;;7.50;6.83;;;26.10;1.00;;;;;;5040205;28;20447;-75
2021/06/10 08:07:34;;;;;;;10.40;7.23;;;26.20;1.00;;;;;;5042842;28;21277;-73
2021/06/10 08:10:00;;;;;;;6.83;6.23;;;26.30;1.00;;;;;;5042398;28;20538;-73
2021/06/10 08:12:27;;;;;;;8.17;7.40;;;26.40;1.00;;;;;;5043099;28;20476;-76
2021/06/10 08:14:53;;;;;;;7.70;7.10;;;26.40;1.00;;;;;;5043636;28;20447;-76
2021/06/10 08:17:19;;;;;;;14.87;8.40;;;26.50;1.00;;;;;;5042694;28;20449;-74
2021/06/10 08:19:47;;;;;;;8.90;8.00;;;26.70;1.00;;;;;;5043682;28;21380;-76
2021/06/10 08:22:14;;;;;;;9.60;7.13;;;26.70;1.00;;;;;;5040928;28;20449;-74
2021/06/10 08:24:40;;;;;;;8.10;7.27;;;26.80;1.00;;;;;;5045211;28;21342;-75
2021/06/10 08:27:08;;;;;;;9.30;7.77;;;26.90;1.00;;;;;;5039590;28;21178;-75
2021/06/10 08:29:34;;;;;;;9.17;7.57;;;26.90;1.00;;;;;;5041366;28;20495;-75
2021/06/10 08:32:00;;;;;;;9.77;8.43;;;27.00;1.00;;;;;;5042683;28;24525;-75
2021/06/10 08:34:26;;;;;;;8.70;7.90;;;27.10;1.00;;;;;;5039020;28;20453;-75
2021/06/10 08:36:54;;;;;;;18.97;7.90;;;27.20;1.00;;;;;;5044659;28;20466;-76
2021/06/10 08:39:22;;;;;;;7.67;7.17;;;27.30;1.00;;;;;;5043963;28;20494;-75
2021/06/10 08:41:48;;;;;;;10.47;9.37;;;27.50;1.00;;;;;;5046864;28;20940;-74
2021/06/10 08:44:15;;;;;;;8.07;7.47;;;27.50;1.00;;;;;;5041931;28;20448;-75
2021/06/10 08:46:41;;;;;;;10.77;9.30;;;27.50;1.00;;;;;;5044508;28;20448;-76
2021/06/10 08:49:07;;;;;;;10.90;8.40;;;27.60;1.00;;;;;;5042931;28;20450;-77
2021/06/10 08:51:35;;;;;;;7.93;7.20;;;27.70;1.00;;;;;;5044077;28;20462;-75
2021/06/10 08:54:03;;;;;;;8.60;7.77;;;27.80;1.00;;;;;;5044909;28;20473;-75
2021/06/10 08:56:32;;;;;;;11.03;10.03;;;27.90;1.00;;;;;;5044303;28;20962;-75
2021/06/10 08:58:58;;;;;;;9.90;9.00;;;28.00;1.00;;;;;;5044372;28;21180;-76
2021/06/10 09:01:24;;;;;;;8.77;8.10;;;28.00;1.00;;;;;;5042238;28;20463;-74
2021/06/10 09:03:54;;;;;;;9.90;9.20;;;27.90;1.00;;;;;;5049229;28;21047;-80
2021/06/10 09:06:21;;;;;;;9.20;8.50;;;27.90;1.00;;;;;;5051107;28;20560;-80
2021/06/10 09:08:48;;;;;;;11.30;10.30;;;28.00;1.00;;;;;;5049847;28;20422;-81
2021/06/10 09:11:18;;;;;;;9.10;8.20;;;28.20;1.00;;;;;;5050284;28;20474;-80
2021/06/10 09:13:46;;;;;;;9.63;7.30;;;28.20;1.00;;;;;;5050402;28;20422;-80
2021/06/10 09:16:17;;;;;;;9.40;7.97;;;28.40;1.00;;;;;;5050296;28;21433;-80
2021/06/10 09:18:52;;;;;;;22.40;20.30;;;28.50;1.00;;;;;;5053412;28;20454;-80
2021/06/10 09:21:26;;;;;;;7.90;7.10;;;28.70;1.00;;;;;;5056442;28;20461;-81
2021/06/10 09:23:52;;;;;;;6.73;6.10;;;28.90;1.00;;;;;;5060956;28;20477;-81
2021/06/10 09:26:19;;;;;;;7.17;6.60;;;28.90;1.00;;;;;;5058803;28;20546;-80
2021/06/10 09:28:50;;;;;;;8.77;7.90;;;28.90;1.00;;;;;;5076987;28;20447;-80
2021/06/10 09:31:30;;;;;;;8.80;7.70;;;29.00;1.00;;;;;;5073282;28;20428;-80
2021/06/10 09:33:57;;;;;;;12.50;8.93;;;29.20;1.00;;;;;;5058735;28;20400;-82
2021/06/10 09:36:24;;;;;;;13.00;7.87;;;29.40;1.00;;;;;;5072976;28;20402;-80
2021/06/10 09:39:07;;;;;;;7.40;6.80;;;29.90;1.00;;;;;;5074242;28;20421;-81
2021/06/10 09:41:35;;;;;;;7.40;6.90;;;31.10;1.00;;;;;;5073437;28;20436;-82
2021/06/10 09:44:02;;;;;;;8.60;7.90;;;32.50;1.00;;;;;;5058558;28;20419;-84
2021/06/10 09:46:29;;;;;;;8.37;7.27;;;33.60;1.00;;;;;;5076635;28;20435;-82
2021/06/10 09:49:05;;;;;;;9.63;6.73;;;34.20;1.00;;;;;;5074871;28;20914;-82
2021/06/10 09:53:59;;;;;;;7.03;6.53;;;35.30;1.00;;;;;;5066785;28;20417;-80
2021/06/10 09:56:26;;;;;;;6.17;5.57;;;36.30;1.00;;;;;;5067406;28;20451;-81
2021/06/10 09:58:57;;;;;;;6.57;6.03;;;37.00;1.00;;;;;;5085453;28;20404;-82
2021/06/10 10:01:24;;;;;;;6.13;5.60;;;37.30;1.00;;;;;;5085139;28;20418;-78
2021/06/10 10:03:52;;;;;;;6.40;5.10;;;36.80;1.00;;;;;;5087307;28;20428;-79
2021/06/10 10:06:20;;;;;;;6.03;5.43;;;36.60;1.00;;;;;;5071446;28;20446;-78
2021/06/10 10:08:52;;;;;;;8.93;5.57;;;36.90;1.00;;;;;;5070162;28;20407;-80
2021/06/10 10:11:21;;;;;;;5.13;4.73;;;37.20;1.00;;;;;;5070738;28;20912;-79
2021/06/10 10:13:49;;;;;;;5.67;5.20;;;36.50;1.00;;;;;;5067811;28;20491;-80
2021/06/10 10:16:21;;;;;;;5.67;5.00;;;36.20;1.00;;;;;;5070152;28;21420;-79
2021/06/10 10:18:49;;;;;;;4.77;4.40;;;36.00;1.00;;;;;;5067683;28;20420;-79
2021/06/10 10:21:16;;;;;;;5.73;5.13;;;35.90;1.00;;;;;;5067211;28;20447;-77
2021/06/10 10:23:43;;;;;;;5.00;4.60;;;36.40;1.00;;;;;;5065497;28;20428;-79
2021/06/10 10:26:09;;;;;;;6.50;5.93;;;36.70;1.00;;;;;;5068970;28;20459;-78
2021/06/10 10:28:36;;;;;;;4.93;4.53;;;36.80;1.00;;;;;;5071731;28;20453;-80
2021/06/10 10:31:04;;;;;;;5.07;4.67;;;37.00;1.00;;;;;;5066340;28;20525;-80
2021/06/10 10:33:32;;;;;;;5.93;5.33;;;37.40;1.00;;;;;;5063773;28;20579;-80
2021/06/10 10:36:00;;;;;;;4.93;4.63;;;37.80;1.00;;;;;;5041523;28;20493;-79
2021/06/10 10:38:32;;;;;;;5.03;4.73;;;37.90;1.00;;;;;;5062932;28;21024;-78
2021/06/10 10:41:01;;;;;;;5.40;4.90;;;37.90;1.00;;;;;;5066405;28;20439;-79
2021/06/10 10:43:29;;;;;;;5.70;5.20;;;38.00;1.00;;;;;;5071613;28;20493;-82
2021/06/10 10:46:12;;;;;;;5.40;5.00;;;38.10;1.00;;;;;;5070437;28;20462;-79
2021/06/10 10:48:44;;;;;;;7.17;4.70;;;38.30;1.00;;;;;;5072624;28;20475;-81
2021/06/10 10:51:25;;;;;;;6.17;5.57;;;38.70;1.00;;;;;;5074270;28;20486;-78
2021/06/10 10:53:56;;;;;;;4.40;4.10;;;38.90;1.00;;;;;;5076796;28;20460;-79
2021/06/10 10:56:35;;;;;;;6.27;5.67;;;39.10;1.00;;;;;;5070178;28;20439;-80
2021/06/10 10:59:15;;;;;;;6.60;4.67;;;39.30;1.00;;;;;;5066182;28;20968;-80
2021/06/10 11:01:42;;;;;;;4.23;4.03;;;39.30;1.00;;;;;;5050910;28;22218;-79
2021/06/10 11:04:49;;;;;;;5.40;5.00;;;38.90;1.00;;;;;;5065668;28;20571;-80
2021/06/10 11:07:49;;;;;;;5.40;4.90;;;38.30;1.00;;;;;;5042658;28;20500;-79
2021/06/10 11:10:18;;;;;;;5.10;4.30;;;38.70;1.00;;;;;;5073718;28;20462;-78
2021/06/10 11:12:54;;;;;;;5.50;5.00;;;38.40;1.00;;;;;;5071211;28;20515;-82
2021/06/10 11:15:49;;;;;;;5.97;5.47;;;38.70;1.00;;;;;;5046942;28;20493;-79
2021/06/10 11:18:40;;;;;;;7.63;5.00;;;39.10;1.00;;;;;;5069264;28;20454;-79
2021/06/10 11:21:09;;;;;;;5.80;5.30;;;39.70;1.00;;;;;;5055804;28;20463;-80
2021/06/10 11:23:35;;;;;;;5.50;4.77;;;39.70;1.00;;;;;;5072805;28;20454;-80
2021/06/10 11:26:03;;;;;;;5.87;5.37;;;39.90;1.00;;;;;;5032029;28;21044;-80
2021/06/10 11:28:35;;;;;;;5.40;4.30;;;40.10;1.00;;;;;;5068876;28;21830;-83
2021/06/10 11:31:24;;;;;;;8.30;5.70;;;40.40;1.00;;;;;;5070892;28;20466;-80
2021/06/10 11:33:51;;;;;;;4.63;4.23;;;40.70;1.00;;;;;;5068147;28;20439;-81
2021/06/10 11:36:19;;;;;;;5.23;4.73;;;41.00;1.00;;;;;;5050422;28;20450;-80
2021/06/10 11:38:47;;;;;;;5.37;4.97;;;41.40;1.00;;;;;;5069392;28;20463;-80
2021/06/10 11:41:18;;;;;;;6.47;5.97;;;41.70;1.00;;;;;;5052226;28;21235;-80
2021/06/10 11:43:47;;;;;;;4.50;4.13;;;41.90;1.00;;;;;;5065232;28;20528;-79
2021/06/10 11:46:16;;;;;;;4.10;3.80;;;42.00;1.00;;;;;;5061987;28;20417;-79
2021/06/10 11:48:44;;;;;;;3.90;3.70;;;42.40;1.00;;;;;;5066940;28;21020;-80
2021/06/10 11:51:20;;;;;;;5.70;4.33;;;42.40;1.00;;;;;;5067263;28;20448;-79
2021/06/10 11:53:47;;;;;;;5.23;4.83;;;42.20;1.00;;;;;;5067918;28;20550;-81
2021/06/10 11:56:17;;;;;;;4.23;3.60;;;42.00;1.00;;;;;;5049048;28;21634;-80
2021/06/10 11:58:43;;;;;;;6.70;4.00;;;41.50;1.00;;;;;;5069933;28;20532;-80
2021/06/10 12:01:11;;;;;;;4.57;4.17;;;41.70;1.00;;;;;;5072069;28;20439;-80
2021/06/10 12:03:41;;;;;;;7.27;4.53;;;42.20;1.00;;;;;;5055711;28;20479;-79
2021/06/10 12:06:08;;;;;;;4.43;3.70;;;42.60;1.00;;;;;;5067829;28;20426;-79
2021/06/10 12:08:37;;;;;;;6.37;5.30;;;43.20;1.00;;;;;;5076005;28;20412;-79
2021/06/10 12:11:05;;;;;;;5.70;5.20;;;43.70;1.00;;;;;;5071961;28;20463;-78
2021/06/10 12:13:34;;;;;;;3.70;3.40;;;43.60;1.00;;;;;;5069713;28;20517;-79
2021/06/10 12:16:02;;;;;;;4.33;3.93;;;43.90;1.00;;;;;;5068871;28;20475;-77
2021/06/10 12:18:29;;;;;;;4.37;3.97;;;43.80;1.00;;;;;;5061556;28;20467;-78
2021/06/10 12:20:58;;;;;;;5.30;3.70;;;43.60;1.00;;;;;;5067462;28;20407;-81
2021/06/10 12:23:27;;;;;;;5.77;4.40;;;43.10;1.00;;;;;;5048454;28;20444;-80
2021/06/10 12:25:56;;;;;;;5.53;5.03;;;40.80;1.00;;;;;;5054010;28;20463;-79
2021/06/10 12:28:34;;;;;;;4.23;3.93;;;38.90;1.00;;;;;;5063166;28;20451;-78
2021/06/10 12:31:18;;;;;;;5.20;4.80;;;38.20;1.00;;;;;;5066236;28;20471;-79
2021/06/10 12:33:46;;;;;;;4.43;4.10;;;39.10;1.00;;;;;;5069229;28;20431;-76
2021/06/10 12:36:15;;;;;;;6.57;6.07;;;39.70;1.00;;;;;;5066376;28;21323;-78
2021/06/10 12:38:43;;;;;;;5.33;4.93;;;38.30;1.00;;;;;;5067008;28;20404;-78
2021/06/10 12:41:18;;;;;;;5.17;4.63;;;36.90;1.00;;;;;;5063689;28;20544;-77
2021/06/10 12:43:45;;;;;;;5.20;4.80;;;35.70;1.00;;;;;;5069488;28;20459;-79
2021/06/10 12:46:12;;;;;;;4.43;4.03;;;34.80;1.00;;;;;;5070994;28;20439;-79
2021/06/10 12:48:39;;;;;;;7.90;7.30;;;34.10;1.00;;;;;;5078062;28;20436;-80
2021/06/10 12:51:24;;;;;;;6.10;5.50;;;33.70;1.00;;;;;;5062310;28;20477;-78
2021/06/10 12:53:58;;;;;;;6.63;6.17;;;33.40;1.00;;;;;;5080607;28;20455;-79
2021/06/10 12:56:35;;;;;;;6.17;4.93;;;34.60;1.00;;;;;;5075669;28;20446;-80
2021/06/10 12:59:02;;;;;;;4.03;3.50;;;36.60;1.00;;;;;;5060908;28;20451;-80
2021/06/10 13:01:28;;;;;;;5.10;4.70;;;38.50;1.00;;;;;;5067103;28;20875;-78
2021/06/10 13:03:55;;;;;;;5.37;4.87;;;39.90;1.00;;;;;;5065543;28;20423;-80